sensor_id;sensor_type;location;lat;lon;timestamp;P1;durP1;ratioP1;P2;durP2;ratioP2
44000;SDS011;29660;42.892;24.710;2024-02-16T00:04:34;47.28;;;32.90;;
44000;SDS011;29660;42.892;24.710;2024-02-16T00:09:56;28.55;;;20.15;;
44000;SDS011;29660;42.892;24.710;2024-02-16T00:15:18;30.35;;;22.58;;
44000;SDS011;29660;42.892;24.710;2024-02-16T00:20:40;43.05;;;32.40;;
44000;SDS011;29660;42.892;24.710;2024-02-16T00:26:03;53.97;;;38.58;;
44000;SDS011;29660;42.892;24.710;2024-02-16T00:31:28;68.90;;;44.88;;
44000;SDS011;29660;42.892;24.710;2024-02-16T00:36:53;68.55;;;44.25;;
44000;SDS011;29660;42.892;24.710;2024-02-16T00:42:15;70.10;;;46.47;;
44000;SDS011;29660;42.892;24.710;2024-02-16T00:47:37;74.70;;;47.70;;
44000;SDS011;29660;42.892;24.710;2024-02-16T00:53:01;56.05;;;39.30;;
44000;SDS011;29660;42.892;24.710;2024-02-16T00:58:23;55.15;;;37.50;;
44000;SDS011;29660;42.892;24.710;2024-02-16T01:03:45;47.78;;;33.22;;
44000;SDS011;29660;42.892;24.710;2024-02-16T01:09:07;54.33;;;37.60;;
44000;SDS011;29660;42.892;24.710;2024-02-16T01:14:30;52.17;;;37.53;;
44000;SDS011;29660;42.892;24.710;2024-02-16T01:19:52;37.60;;;27.73;;
44000;SDS011;29660;42.892;24.710;2024-02-16T01:25:14;31.55;;;25.00;;
44000;SDS011;29660;42.892;24.710;2024-02-16T01:30:37;28.98;;;19.98;;
44000;SDS011;29660;42.892;24.710;2024-02-16T01:36:00;31.83;;;25.25;;
44000;SDS011;29660;42.892;24.710;2024-02-16T01:41:22;37.35;;;23.83;;
44000;SDS011;29660;42.892;24.710;2024-02-16T01:46:44;28.67;;;21.48;;
44000;SDS011;29660;42.892;24.710;2024-02-16T01:52:06;27.60;;;20.77;;
44000;SDS011;29660;42.892;24.710;2024-02-16T01:57:29;36.40;;;26.70;;
44000;SDS011;29660;42.892;24.710;2024-02-16T02:02:53;47.63;;;33.42;;
44000;SDS011;29660;42.892;24.710;2024-02-16T02:08:15;47.45;;;33.53;;
44000;SDS011;29660;42.892;24.710;2024-02-16T02:13:37;43.20;;;32.55;;
44000;SDS011;29660;42.892;24.710;2024-02-16T02:18:59;38.38;;;29.17;;
44000;SDS011;29660;42.892;24.710;2024-02-16T02:24:21;35.45;;;27.20;;
44000;SDS011;29660;42.892;24.710;2024-02-16T02:29:44;34.17;;;26.25;;
44000;SDS011;29660;42.892;24.710;2024-02-16T02:35:07;32.53;;;26.23;;
44000;SDS011;29660;42.892;24.710;2024-02-16T02:40:30;39.17;;;28.83;;
44000;SDS011;29660;42.892;24.710;2024-02-16T02:45:52;31.80;;;24.77;;
44000;SDS011;29660;42.892;24.710;2024-02-16T02:51:14;21.77;;;16.65;;
44000;SDS011;29660;42.892;24.710;2024-02-16T02:56:36;24.42;;;18.42;;
44000;SDS011;29660;42.892;24.710;2024-02-16T03:01:58;19.35;;;14.30;;
44000;SDS011;29660;42.892;24.710;2024-02-16T03:07:21;17.15;;;13.77;;
44000;SDS011;29660;42.892;24.710;2024-02-16T03:12:43;30.40;;;23.27;;
44000;SDS011;29660;42.892;24.710;2024-02-16T03:18:06;27.73;;;19.58;;
44000;SDS011;29660;42.892;24.710;2024-02-16T03:23:31;24.98;;;18.85;;
44000;SDS011;29660;42.892;24.710;2024-02-16T03:28:53;34.40;;;26.88;;
44000;SDS011;29660;42.892;24.710;2024-02-16T03:34:15;39.95;;;29.52;;
44000;SDS011;29660;42.892;24.710;2024-02-16T03:39:37;43.15;;;32.10;;
44000;SDS011;29660;42.892;24.710;2024-02-16T03:44:59;39.17;;;28.83;;
44000;SDS011;29660;42.892;24.710;2024-02-16T03:50:21;29.45;;;22.30;;
44000;SDS011;29660;42.892;24.710;2024-02-16T03:55:46;21.63;;;16.67;;
44000;SDS011;29660;42.892;24.710;2024-02-16T04:01:08;20.30;;;17.55;;
44000;SDS011;29660;42.892;24.710;2024-02-16T04:06:30;25.83;;;18.98;;
44000;SDS011;29660;42.892;24.710;2024-02-16T04:11:53;26.77;;;21.50;;
44000;SDS011;29660;42.892;24.710;2024-02-16T04:17:15;23.95;;;15.70;;
44000;SDS011;29660;42.892;24.710;2024-02-16T04:22:37;18.73;;;15.50;;
44000;SDS011;29660;42.892;24.710;2024-02-16T04:28:00;39.35;;;29.02;;
44000;SDS011;29660;42.892;24.710;2024-02-16T04:33:22;92.57;;;64.43;;
44000;SDS011;29660;42.892;24.710;2024-02-16T04:38:44;33.05;;;25.05;;
44000;SDS011;29660;42.892;24.710;2024-02-16T04:44:06;15.95;;;12.43;;
44000;SDS011;29660;42.892;24.710;2024-02-16T04:49:28;25.55;;;15.30;;
44000;SDS011;29660;42.892;24.710;2024-02-16T04:54:51;31.23;;;20.30;;
44000;SDS011;29660;42.892;24.710;2024-02-16T05:00:13;31.77;;;20.90;;
44000;SDS011;29660;42.892;24.710;2024-02-16T05:05:36;35.88;;;23.88;;
44000;SDS011;29660;42.892;24.710;2024-02-16T05:10:59;39.17;;;29.15;;
44000;SDS011;29660;42.892;24.710;2024-02-16T05:16:22;41.58;;;27.73;;
44000;SDS011;29660;42.892;24.710;2024-02-16T05:21:45;81.88;;;63.90;;
44000;SDS011;29660;42.892;24.710;2024-02-16T05:27:07;79.90;;;54.85;;
44000;SDS011;29660;42.892;24.710;2024-02-16T05:32:29;79.55;;;50.00;;
44000;SDS011;29660;42.892;24.710;2024-02-16T05:37:51;53.50;;;34.53;;
44000;SDS011;29660;42.892;24.710;2024-02-16T05:43:14;53.75;;;34.92;;
44000;SDS011;29660;42.892;24.710;2024-02-16T05:48:36;66.43;;;43.38;;
44000;SDS011;29660;42.892;24.710;2024-02-16T05:54:02;77.45;;;53.35;;
44000;SDS011;29660;42.892;24.710;2024-02-16T05:59:24;68.43;;;44.78;;
44000;SDS011;29660;42.892;24.710;2024-02-16T06:04:48;43.85;;;31.02;;
44000;SDS011;29660;42.892;24.710;2024-02-16T06:10:11;41.67;;;29.98;;
44000;SDS011;29660;42.892;24.710;2024-02-16T06:15:34;69.25;;;50.20;;
44000;SDS011;29660;42.892;24.710;2024-02-16T06:20:56;32.97;;;24.70;;
44000;SDS011;29660;42.892;24.710;2024-02-16T06:26:18;35.58;;;24.52;;
44000;SDS011;29660;42.892;24.710;2024-02-16T06:31:42;40.25;;;31.15;;
44000;SDS011;29660;42.892;24.710;2024-02-16T06:37:04;67.88;;;50.55;;
44000;SDS011;29660;42.892;24.710;2024-02-16T06:42:27;59.25;;;44.28;;
44000;SDS011;29660;42.892;24.710;2024-02-16T06:47:49;96.80;;;64.97;;
44000;SDS011;29660;42.892;24.710;2024-02-16T06:53:11;92.07;;;64.10;;
44000;SDS011;29660;42.892;24.710;2024-02-16T06:58:33;79.90;;;54.97;;
44000;SDS011;29660;42.892;24.710;2024-02-16T07:03:58;65.65;;;39.67;;
44000;SDS011;29660;42.892;24.710;2024-02-16T07:09:20;36.55;;;28.50;;
44000;SDS011;29660;42.892;24.710;2024-02-16T07:14:43;34.15;;;25.63;;
44000;SDS011;29660;42.892;24.710;2024-02-16T07:20:08;35.40;;;28.10;;
44000;SDS011;29660;42.892;24.710;2024-02-16T07:25:31;78.93;;;50.33;;
44000;SDS011;29660;42.892;24.710;2024-02-16T07:30:53;80.07;;;60.65;;
44000;SDS011;29660;42.892;24.710;2024-02-16T07:36:15;80.97;;;62.50;;
44000;SDS011;29660;42.892;24.710;2024-02-16T07:41:40;59.20;;;41.25;;
44000;SDS011;29660;42.892;24.710;2024-02-16T07:47:03;47.55;;;34.88;;
44000;SDS011;29660;42.892;24.710;2024-02-16T07:52:25;47.95;;;32.67;;
44000;SDS011;29660;42.892;24.710;2024-02-16T07:57:47;44.33;;;32.95;;
44000;SDS011;29660;42.892;24.710;2024-02-16T08:03:09;44.88;;;34.30;;
44000;SDS011;29660;42.892;24.710;2024-02-16T08:08:31;37.00;;;28.65;;
44000;SDS011;29660;42.892;24.710;2024-02-16T08:13:53;34.05;;;27.42;;
44000;SDS011;29660;42.892;24.710;2024-02-16T08:19:17;41.25;;;27.83;;
44000;SDS011;29660;42.892;24.710;2024-02-16T08:24:39;34.63;;;22.38;;
44000;SDS011;29660;42.892;24.710;2024-02-16T08:30:01;35.15;;;24.48;;
44000;SDS011;29660;42.892;24.710;2024-02-16T08:35:25;16.98;;;14.25;;
44000;SDS011;29660;42.892;24.710;2024-02-16T08:40:47;21.48;;;14.63;;
44000;SDS011;29660;42.892;24.710;2024-02-16T08:46:09;19.20;;;16.35;;
44000;SDS011;29660;42.892;24.710;2024-02-16T08:52:00;21.73;;;15.50;;
44000;SDS011;29660;42.892;24.710;2024-02-16T08:57:23;21.67;;;15.30;;
44000;SDS011;29660;42.892;24.710;2024-02-16T09:02:46;23.17;;;15.95;;
44000;SDS011;29660;42.892;24.710;2024-02-16T09:08:10;19.67;;;14.68;;
44000;SDS011;29660;42.892;24.710;2024-02-16T09:13:36;18.30;;;12.88;;
44000;SDS011;29660;42.892;24.710;2024-02-16T09:19:02;15.05;;;12.13;;
44000;SDS011;29660;42.892;24.710;2024-02-16T09:24:24;12.48;;;10.45;;
44000;SDS011;29660;42.892;24.710;2024-02-16T09:29:50;14.85;;;11.48;;
44000;SDS011;29660;42.892;24.710;2024-02-16T09:35:13;16.10;;;13.13;;
44000;SDS011;29660;42.892;24.710;2024-02-16T09:40:36;17.88;;;11.15;;
44000;SDS011;29660;42.892;24.710;2024-02-16T09:45:58;15.85;;;12.32;;
44000;SDS011;29660;42.892;24.710;2024-02-16T09:51:24;22.98;;;17.13;;
44000;SDS011;29660;42.892;24.710;2024-02-16T09:56:47;15.68;;;11.52;;
44000;SDS011;29660;42.892;24.710;2024-02-16T10:02:09;10.40;;;8.77;;
44000;SDS011;29660;42.892;24.710;2024-02-16T10:07:31;16.23;;;9.43;;
44000;SDS011;29660;42.892;24.710;2024-02-16T10:13:03;11.75;;;10.55;;
44000;SDS011;29660;42.892;24.710;2024-02-16T10:18:27;15.85;;;11.68;;
44000;SDS011;29660;42.892;24.710;2024-02-16T10:24:09;13.15;;;7.70;;
44000;SDS011;29660;42.892;24.710;2024-02-16T10:29:32;14.10;;;10.05;;
44000;SDS011;29660;42.892;24.710;2024-02-16T10:34:55;8.95;;;7.15;;
44000;SDS011;29660;42.892;24.710;2024-02-16T10:40:19;9.32;;;5.82;;
44000;SDS011;29660;42.892;24.710;2024-02-16T10:45:42;8.20;;;6.43;;
44000;SDS011;29660;42.892;24.710;2024-02-16T10:51:06;8.27;;;6.97;;
44000;SDS011;29660;42.892;24.710;2024-02-16T10:56:34;6.10;;;5.40;;
44000;SDS011;29660;42.892;24.710;2024-02-16T11:02:00;10.52;;;8.77;;
44000;SDS011;29660;42.892;24.710;2024-02-16T11:07:24;6.03;;;5.15;;
44000;SDS011;29660;42.892;24.710;2024-02-16T11:12:47;6.28;;;4.55;;
44000;SDS011;29660;42.892;24.710;2024-02-16T11:18:10;7.57;;;6.03;;
44000;SDS011;29660;42.892;24.710;2024-02-16T11:23:34;8.43;;;6.22;;
44000;SDS011;29660;42.892;24.710;2024-02-16T11:28:58;7.90;;;7.10;;
44000;SDS011;29660;42.892;24.710;2024-02-16T11:34:21;7.07;;;6.38;;
44000;SDS011;29660;42.892;24.710;2024-02-16T11:39:54;15.00;;;11.27;;
44000;SDS011;29660;42.892;24.710;2024-02-16T11:45:17;10.18;;;8.23;;
44000;SDS011;29660;42.892;24.710;2024-02-16T11:50:39;13.63;;;10.30;;
44000;SDS011;29660;42.892;24.710;2024-02-16T11:56:01;8.00;;;5.72;;
44000;SDS011;29660;42.892;24.710;2024-02-16T12:01:24;7.03;;;6.00;;
44000;SDS011;29660;42.892;24.710;2024-02-16T12:06:46;10.95;;;7.80;;
44000;SDS011;29660;42.892;24.710;2024-02-16T12:12:09;7.95;;;6.40;;
44000;SDS011;29660;42.892;24.710;2024-02-16T12:17:31;6.68;;;5.63;;
44000;SDS011;29660;42.892;24.710;2024-02-16T12:22:54;8.50;;;7.00;;
44000;SDS011;29660;42.892;24.710;2024-02-16T12:28:16;12.68;;;10.55;;
44000;SDS011;29660;42.892;24.710;2024-02-16T12:33:38;8.13;;;5.85;;
44000;SDS011;29660;42.892;24.710;2024-02-16T12:39:01;5.50;;;3.70;;
44000;SDS011;29660;42.892;24.710;2024-02-16T12:44:25;6.75;;;3.70;;
44000;SDS011;29660;42.892;24.710;2024-02-16T12:49:47;10.98;;;4.85;;
44000;SDS011;29660;42.892;24.710;2024-02-16T12:55:09;9.13;;;7.85;;
44000;SDS011;29660;42.892;24.710;2024-02-16T13:00:32;39.10;;;24.85;;
44000;SDS011;29660;42.892;24.710;2024-02-16T13:05:54;12.00;;;9.48;;
44000;SDS011;29660;42.892;24.710;2024-02-16T13:11:16;6.00;;;4.40;;
44000;SDS011;29660;42.892;24.710;2024-02-16T13:16:38;16.48;;;11.38;;
44000;SDS011;29660;42.892;24.710;2024-02-16T13:22:00;17.13;;;12.75;;
44000;SDS011;29660;42.892;24.710;2024-02-16T13:27:22;25.73;;;15.45;;
44000;SDS011;29660;42.892;24.710;2024-02-16T13:32:45;7.82;;;6.57;;
44000;SDS011;29660;42.892;24.710;2024-02-16T13:38:08;3.85;;;3.22;;
44000;SDS011;29660;42.892;24.710;2024-02-16T13:43:30;11.55;;;7.22;;
44000;SDS011;29660;42.892;24.710;2024-02-16T13:48:52;8.00;;;6.05;;
44000;SDS011;29660;42.892;24.710;2024-02-16T13:54:15;4.97;;;3.70;;
44000;SDS011;29660;42.892;24.710;2024-02-16T13:59:37;6.85;;;3.90;;
44000;SDS011;29660;42.892;24.710;2024-02-16T14:04:59;7.50;;;5.65;;
44000;SDS011;29660;42.892;24.710;2024-02-16T14:10:22;19.02;;;13.32;;
44000;SDS011;29660;42.892;24.710;2024-02-16T14:15:44;5.40;;;4.90;;
44000;SDS011;29660;42.892;24.710;2024-02-16T14:21:06;4.63;;;4.15;;
44000;SDS011;29660;42.892;24.710;2024-02-16T14:26:28;9.57;;;7.65;;
44000;SDS011;29660;42.892;24.710;2024-02-16T14:31:50;4.55;;;4.10;;
44000;SDS011;29660;42.892;24.710;2024-02-16T14:37:13;7.40;;;4.78;;
44000;SDS011;29660;42.892;24.710;2024-02-16T14:42:35;18.85;;;11.43;;
44000;SDS011;29660;42.892;24.710;2024-02-16T14:47:58;32.63;;;18.45;;
44000;SDS011;29660;42.892;24.710;2024-02-16T14:53:20;17.80;;;13.32;;
44000;SDS011;29660;42.892;24.710;2024-02-16T14:58:43;34.75;;;20.65;;
44000;SDS011;29660;42.892;24.710;2024-02-16T15:04:06;14.32;;;11.13;;
44000;SDS011;29660;42.892;24.710;2024-02-16T15:09:28;126.45;;;86.60;;
44000;SDS011;29660;42.892;24.710;2024-02-16T15:14:50;31.48;;;21.48;;
44000;SDS011;29660;42.892;24.710;2024-02-16T15:20:13;32.45;;;17.55;;
44000;SDS011;29660;42.892;24.710;2024-02-16T15:25:35;34.65;;;26.67;;
44000;SDS011;29660;42.892;24.710;2024-02-16T15:30:57;19.75;;;16.17;;
44000;SDS011;29660;42.892;24.710;2024-02-16T15:36:20;27.98;;;19.88;;
44000;SDS011;29660;42.892;24.710;2024-02-16T15:41:42;19.30;;;13.55;;
44000;SDS011;29660;42.892;24.710;2024-02-16T15:47:04;35.75;;;24.98;;
44000;SDS011;29660;42.892;24.710;2024-02-16T15:52:26;85.47;;;61.08;;
44000;SDS011;29660;42.892;24.710;2024-02-16T15:57:48;59.17;;;41.97;;
44000;SDS011;29660;42.892;24.710;2024-02-16T16:03:11;96.78;;;64.22;;
44000;SDS011;29660;42.892;24.710;2024-02-16T16:08:33;112.85;;;71.13;;
44000;SDS011;29660;42.892;24.710;2024-02-16T16:13:55;83.15;;;56.55;;
44000;SDS011;29660;42.892;24.710;2024-02-16T16:19:17;150.00;;;100.78;;
44000;SDS011;29660;42.892;24.710;2024-02-16T16:24:39;181.93;;;104.47;;
44000;SDS011;29660;42.892;24.710;2024-02-16T16:30:05;131.80;;;84.97;;
44000;SDS011;29660;42.892;24.710;2024-02-16T16:35:27;113.30;;;74.45;;
44000;SDS011;29660;42.892;24.710;2024-02-16T16:40:50;151.90;;;118.18;;
44000;SDS011;29660;42.892;24.710;2024-02-16T16:46:12;133.57;;;96.97;;
44000;SDS011;29660;42.892;24.710;2024-02-16T16:51:34;132.50;;;95.30;;
44000;SDS011;29660;42.892;24.710;2024-02-16T16:56:56;126.88;;;83.97;;
44000;SDS011;29660;42.892;24.710;2024-02-16T17:02:18;123.78;;;86.78;;
44000;SDS011;29660;42.892;24.710;2024-02-16T17:07:44;117.72;;;85.78;;
44000;SDS011;29660;42.892;24.710;2024-02-16T17:13:09;131.90;;;93.90;;
44000;SDS011;29660;42.892;24.710;2024-02-16T17:18:31;120.43;;;89.97;;
44000;SDS011;29660;42.892;24.710;2024-02-16T17:23:57;112.65;;;86.00;;
44000;SDS011;29660;42.892;24.710;2024-02-16T17:29:19;182.18;;;134.13;;
44000;SDS011;29660;42.892;24.710;2024-02-16T17:34:41;158.20;;;117.80;;
44000;SDS011;29660;42.892;24.710;2024-02-16T17:40:04;157.57;;;115.10;;
44000;SDS011;29660;42.892;24.710;2024-02-16T17:45:26;151.70;;;106.65;;
44000;SDS011;29660;42.892;24.710;2024-02-16T17:50:48;173.15;;;117.13;;
44000;SDS011;29660;42.892;24.710;2024-02-16T17:56:11;126.50;;;85.43;;
44000;SDS011;29660;42.892;24.710;2024-02-16T18:01:33;220.85;;;146.27;;
44000;SDS011;29660;42.892;24.710;2024-02-16T18:06:55;162.90;;;111.05;;
44000;SDS011;29660;42.892;24.710;2024-02-16T18:12:17;147.77;;;107.03;;
44000;SDS011;29660;42.892;24.710;2024-02-16T18:17:40;99.40;;;74.90;;
44000;SDS011;29660;42.892;24.710;2024-02-16T18:23:02;100.25;;;74.53;;
44000;SDS011;29660;42.892;24.710;2024-02-16T18:28:25;164.23;;;85.93;;
44000;SDS011;29660;42.892;24.710;2024-02-16T18:33:50;128.02;;;81.57;;
44000;SDS011;29660;42.892;24.710;2024-02-16T18:39:13;116.65;;;85.97;;
44000;SDS011;29660;42.892;24.710;2024-02-16T18:44:35;115.63;;;80.13;;
44000;SDS011;29660;42.892;24.710;2024-02-16T18:49:58;116.65;;;87.47;;
44000;SDS011;29660;42.892;24.710;2024-02-16T18:55:20;132.30;;;97.75;;
44000;SDS011;29660;42.892;24.710;2024-02-16T19:00:44;133.38;;;93.53;;
44000;SDS011;29660;42.892;24.710;2024-02-16T19:06:08;127.22;;;89.07;;
44000;SDS011;29660;42.892;24.710;2024-02-16T19:11:30;124.03;;;88.32;;
44000;SDS011;29660;42.892;24.710;2024-02-16T19:16:53;114.50;;;83.50;;
44000;SDS011;29660;42.892;24.710;2024-02-16T19:22:17;90.40;;;62.22;;
44000;SDS011;29660;42.892;24.710;2024-02-16T19:27:39;48.20;;;35.45;;
44000;SDS011;29660;42.892;24.710;2024-02-16T19:33:02;47.63;;;34.90;;
44000;SDS011;29660;42.892;24.710;2024-02-16T19:38:24;100.10;;;71.15;;
44000;SDS011;29660;42.892;24.710;2024-02-16T19:43:47;150.05;;;105.88;;
44000;SDS011;29660;42.892;24.710;2024-02-16T19:49:09;127.05;;;89.53;;
44000;SDS011;29660;42.892;24.710;2024-02-16T19:54:31;119.75;;;83.57;;
44000;SDS011;29660;42.892;24.710;2024-02-16T19:59:54;107.18;;;73.03;;
44000;SDS011;29660;42.892;24.710;2024-02-16T20:05:17;69.60;;;47.97;;
44000;SDS011;29660;42.892;24.710;2024-02-16T20:10:41;80.22;;;56.13;;
44000;SDS011;29660;42.892;24.710;2024-02-16T20:16:03;89.90;;;66.93;;
44000;SDS011;29660;42.892;24.710;2024-02-16T20:21:26;99.32;;;68.38;;
44000;SDS011;29660;42.892;24.710;2024-02-16T20:26:48;96.75;;;67.78;;
44000;SDS011;29660;42.892;24.710;2024-02-16T20:32:11;148.80;;;104.45;;
44000;SDS011;29660;42.892;24.710;2024-02-16T20:37:33;160.50;;;98.15;;
44000;SDS011;29660;42.892;24.710;2024-02-16T20:42:55;120.55;;;73.43;;
44000;SDS011;29660;42.892;24.710;2024-02-16T20:48:21;112.63;;;70.38;;
44000;SDS011;29660;42.892;24.710;2024-02-16T20:53:43;97.05;;;66.70;;
44000;SDS011;29660;42.892;24.710;2024-02-16T20:59:05;99.63;;;66.13;;
44000;SDS011;29660;42.892;24.710;2024-02-16T21:04:33;106.53;;;69.85;;
44000;SDS011;29660;42.892;24.710;2024-02-16T21:09:56;118.07;;;70.85;;
44000;SDS011;29660;42.892;24.710;2024-02-16T21:15:18;112.95;;;66.07;;
44000;SDS011;29660;42.892;24.710;2024-02-16T21:20:41;100.30;;;62.92;;
44000;SDS011;29660;42.892;24.710;2024-02-16T21:26:04;92.85;;;59.80;;
44000;SDS011;29660;42.892;24.710;2024-02-16T21:31:26;92.95;;;62.65;;
44000;SDS011;29660;42.892;24.710;2024-02-16T21:36:48;109.50;;;77.20;;
44000;SDS011;29660;42.892;24.710;2024-02-16T21:42:15;83.13;;;56.17;;
44000;SDS011;29660;42.892;24.710;2024-02-16T21:47:39;68.22;;;44.67;;
44000;SDS011;29660;42.892;24.710;2024-02-16T21:53:02;53.67;;;38.55;;
44000;SDS011;29660;42.892;24.710;2024-02-16T21:58:24;49.72;;;34.08;;
44000;SDS011;29660;42.892;24.710;2024-02-16T22:03:46;46.00;;;32.50;;
44000;SDS011;29660;42.892;24.710;2024-02-16T22:09:12;49.05;;;33.38;;
44000;SDS011;29660;42.892;24.710;2024-02-16T22:14:35;46.60;;;30.42;;
44000;SDS011;29660;42.892;24.710;2024-02-16T22:19:57;47.40;;;32.35;;
44000;SDS011;29660;42.892;24.710;2024-02-16T22:25:19;71.80;;;49.03;;
44000;SDS011;29660;42.892;24.710;2024-02-16T22:30:41;58.40;;;38.58;;
44000;SDS011;29660;42.892;24.710;2024-02-16T22:36:04;42.80;;;29.33;;
44000;SDS011;29660;42.892;24.710;2024-02-16T22:41:26;43.30;;;29.15;;
44000;SDS011;29660;42.892;24.710;2024-02-16T22:46:48;87.35;;;51.15;;
44000;SDS011;29660;42.892;24.710;2024-02-16T22:52:10;49.38;;;32.50;;
44000;SDS011;29660;42.892;24.710;2024-02-16T22:57:32;38.70;;;25.70;;
44000;SDS011;29660;42.892;24.710;2024-02-16T23:02:55;32.63;;;22.70;;
44000;SDS011;29660;42.892;24.710;2024-02-16T23:08:17;43.22;;;27.33;;
44000;SDS011;29660;42.892;24.710;2024-02-16T23:13:41;36.63;;;27.13;;
44000;SDS011;29660;42.892;24.710;2024-02-16T23:19:03;29.25;;;19.95;;
44000;SDS011;29660;42.892;24.710;2024-02-16T23:24:25;32.97;;;24.85;;
44000;SDS011;29660;42.892;24.710;2024-02-16T23:29:47;40.58;;;27.05;;
44000;SDS011;29660;42.892;24.710;2024-02-16T23:35:10;34.80;;;24.95;;
44000;SDS011;29660;42.892;24.710;2024-02-16T23:40:32;44.28;;;32.55;;
44000;SDS011;29660;42.892;24.710;2024-02-16T23:45:54;40.72;;;30.17;;
44000;SDS011;29660;42.892;24.710;2024-02-16T23:51:22;42.70;;;27.45;;
44000;SDS011;29660;42.892;24.710;2024-02-16T23:56:44;41.75;;;26.95;;
